createdAt,value
2018-06-21T00:01:45.032Z,8.68
2018-06-21T00:04:13.999Z,9.83
2018-06-21T00:06:43.072Z,9.75
2018-06-21T00:09:12.011Z,9.15
2018-06-21T00:11:40.962Z,9.73
2018-06-21T00:14:10.135Z,8.68
2018-06-21T00:16:39.194Z,9.23
2018-06-21T00:19:08.201Z,10.45
2018-06-21T00:21:37.134Z,10.50
2018-06-21T00:24:06.127Z,10.65
2018-06-21T00:26:35.031Z,9.83
2018-06-21T00:29:03.948Z,10.30
2018-06-21T00:31:32.871Z,9.45
2018-06-21T00:34:01.825Z,8.90
2018-06-21T00:36:30.824Z,10.40
2018-06-21T00:38:59.748Z,9.40
2018-06-21T00:41:28.750Z,9.90
2018-06-21T00:43:57.651Z,8.68
2018-06-21T00:46:26.558Z,10.53
2018-06-21T00:48:55.604Z,9.65
2018-06-21T00:51:24.590Z,11.33
2018-06-21T00:53:53.484Z,9.98
2018-06-21T00:56:22.409Z,10.68
2018-06-21T00:58:51.354Z,10.45
2018-06-21T01:01:20.810Z,12.23
2018-06-21T01:03:49.720Z,10.58
2018-06-21T01:06:18.638Z,11.00
2018-06-21T01:08:47.974Z,15.88
2018-06-21T01:11:16.905Z,9.95
2018-06-21T01:13:46.332Z,9.88
2018-06-21T01:16:15.458Z,11.65
2018-06-21T01:18:44.412Z,10.28
2018-06-21T01:21:13.320Z,10.20
2018-06-21T01:23:42.243Z,9.63
2018-06-21T01:26:11.134Z,9.60
2018-06-21T01:28:40.083Z,10.50
2018-06-21T01:31:09.046Z,10.13
2018-06-21T01:33:37.987Z,10.25
2018-06-21T01:36:06.934Z,10.40
2018-06-21T01:38:36.091Z,9.65
2018-06-21T01:41:05.118Z,10.82
2018-06-21T01:43:34.066Z,9.83
2018-06-21T01:46:03.018Z,10.38
2018-06-21T01:48:31.930Z,10.32
2018-06-21T01:51:00.910Z,10.93
2018-06-21T01:53:29.845Z,9.95
2018-06-21T01:55:58.835Z,11.30
2018-06-21T01:58:27.810Z,9.50
2018-06-21T02:00:56.702Z,11.35
2018-06-21T02:03:25.619Z,10.65
2018-06-21T02:05:54.615Z,10.85
2018-06-21T02:08:23.552Z,10.60
2018-06-21T02:10:52.506Z,10.60
2018-06-21T02:13:21.418Z,11.33
2018-06-21T02:15:50.305Z,10.80
2018-06-21T02:18:19.218Z,11.83
2018-06-21T02:20:48.146Z,10.82
2018-06-21T02:23:17.041Z,12.30
2018-06-21T02:25:45.999Z,12.63
2018-06-21T02:28:14.925Z,11.35
2018-06-21T02:30:43.838Z,11.63
2018-06-21T02:33:12.746Z,10.65
2018-06-21T02:35:41.666Z,12.30
2018-06-21T02:38:10.570Z,11.50
2018-06-21T02:40:39.745Z,11.25
2018-06-21T02:43:09.257Z,11.78
2018-06-21T02:45:38.246Z,11.15
2018-06-21T02:48:07.146Z,11.75
2018-06-21T02:50:36.040Z,12.37
2018-06-21T02:53:04.966Z,10.35
2018-06-21T02:55:33.907Z,11.12
2018-06-21T02:58:03.155Z,11.68
2018-06-21T03:00:32.152Z,13.05
2018-06-21T03:03:01.076Z,12.15
2018-06-21T03:05:29.971Z,11.08
2018-06-21T03:07:58.898Z,10.08
2018-06-21T03:10:28.246Z,11.35
2018-06-21T03:12:57.210Z,12.30
2018-06-21T03:15:26.614Z,11.70
2018-06-21T03:17:55.586Z,12.60
2018-06-21T03:20:24.517Z,11.08
2018-06-21T03:22:53.611Z,11.08
2018-06-21T03:25:22.535Z,9.90
2018-06-21T03:27:51.091Z,9.25
2018-06-21T03:30:20.050Z,9.98
2018-06-21T03:32:48.931Z,9.38
2018-06-21T03:35:17.890Z,10.95
2018-06-21T03:37:46.815Z,8.78
2018-06-21T03:40:15.744Z,9.55
2018-06-21T03:42:44.696Z,8.40
2018-06-21T03:45:13.716Z,10.15
2018-06-21T03:47:42.659Z,10.58
2018-06-21T03:50:11.591Z,9.88
2018-06-21T03:52:40.467Z,8.30
2018-06-21T03:55:09.419Z,9.08
2018-06-21T03:57:38.353Z,9.60
2018-06-21T04:00:07.584Z,9.10
2018-06-21T04:02:36.531Z,10.53
2018-06-21T04:05:05.627Z,8.98
2018-06-21T04:07:34.566Z,8.30
2018-06-21T04:10:03.464Z,8.23
2018-06-21T04:12:32.382Z,8.55
2018-06-21T04:15:01.304Z,8.20
2018-06-21T04:17:30.784Z,9.65
2018-06-21T04:20:00.152Z,8.25
2018-06-21T04:22:29.156Z,12.18
2018-06-21T04:24:58.060Z,9.10
2018-06-21T04:27:26.964Z,8.58
2018-06-21T04:29:56.037Z,8.48
2018-06-21T04:32:24.990Z,8.28
2018-06-21T04:34:53.948Z,40.85
2018-06-21T04:37:22.927Z,8.88
2018-06-21T04:39:51.844Z,8.78
2018-06-21T04:42:20.835Z,8.83
2018-06-21T04:44:49.770Z,9.48
2018-06-21T04:47:18.689Z,9.93
2018-06-21T04:49:47.669Z,9.40
2018-06-21T04:52:16.578Z,9.15
2018-06-21T04:54:45.533Z,7.72
2018-06-21T04:57:14.482Z,8.00
2018-06-21T04:59:44.030Z,8.75
2018-06-21T05:02:12.967Z,7.78
2018-06-21T05:04:41.916Z,7.15
2018-06-21T05:07:11.394Z,8.55
2018-06-21T05:09:40.358Z,12.47
2018-06-21T05:12:09.391Z,7.65
2018-06-21T05:14:38.859Z,8.95
2018-06-21T05:17:07.814Z,9.08
2018-06-21T05:19:36.703Z,7.83
2018-06-21T05:22:05.642Z,15.23
2018-06-21T05:24:35.141Z,7.87
2018-06-21T05:27:04.134Z,7.30
2018-06-21T05:29:33.119Z,11.45
2018-06-21T05:32:02.103Z,8.23
2018-06-21T05:34:31.013Z,10.20
2018-06-21T05:37:00.048Z,6.97
2018-06-21T05:39:29.016Z,7.72
2018-06-21T05:41:58.370Z,7.10
2018-06-21T05:44:27.329Z,7.95
2018-06-21T05:46:56.551Z,7.13
2018-06-21T05:49:25.993Z,9.30
2018-06-21T05:51:54.948Z,10.07
2018-06-21T05:54:23.879Z,11.57
2018-06-21T05:56:52.798Z,10.80
2018-06-21T05:59:21.850Z,5.90
2018-06-21T06:01:50.811Z,7.23
2018-06-21T06:04:19.728Z,8.77
2018-06-21T06:06:48.831Z,10.07
2018-06-21T06:09:18.028Z,8.40
2018-06-21T06:11:47.207Z,11.80
2018-06-21T06:14:16.354Z,5.80
2018-06-21T06:16:45.818Z,6.20
2018-06-21T06:19:14.985Z,9.87
2018-06-21T06:21:44.429Z,5.20
2018-06-21T06:24:13.067Z,4.83
2018-06-21T06:26:42.267Z,5.47
2018-06-21T06:29:11.402Z,9.40
2018-06-21T06:31:41.148Z,5.30
2018-06-21T06:34:10.244Z,7.70
2018-06-21T06:36:39.644Z,5.40
2018-06-21T06:39:16.135Z,11.80
2018-06-21T06:41:46.416Z,5.13
2018-06-21T06:44:15.500Z,5.90
2018-06-21T06:46:44.663Z,5.47
2018-06-21T06:49:13.973Z,5.33
2018-06-21T06:51:43.113Z,5.70
2018-06-21T06:54:12.957Z,5.60
2018-06-21T06:56:42.383Z,7.30
2018-06-21T06:59:11.546Z,6.00
2018-06-21T07:01:40.690Z,4.57
2018-06-21T07:04:09.439Z,7.07
2018-06-21T07:06:39.085Z,5.83
2018-06-21T07:09:08.316Z,5.03
2018-06-21T07:11:37.640Z,5.30
2018-06-21T07:14:07.272Z,6.03
2018-06-21T07:16:36.444Z,4.60
2018-06-21T07:19:06.028Z,4.03
2018-06-21T07:21:38.311Z,6.83
2018-06-21T07:24:07.596Z,5.10
2018-06-21T07:26:37.436Z,7.57
2018-06-21T07:29:06.776Z,5.57
2018-06-21T07:31:35.978Z,6.43
2018-06-21T07:34:05.459Z,8.23
2018-06-21T07:36:34.659Z,6.07
2018-06-21T07:39:04.011Z,4.70
2018-06-21T07:41:33.712Z,4.07
2018-06-21T07:44:03.306Z,7.00
2018-06-21T07:46:32.769Z,5.87
2018-06-21T07:49:01.793Z,6.40
2018-06-21T07:51:31.105Z,3.37
2018-06-21T07:54:00.387Z,4.70
2018-06-21T07:56:30.038Z,3.30
2018-06-21T07:58:59.258Z,11.77
2018-06-21T08:01:28.391Z,4.03
2018-06-21T08:03:57.386Z,3.43
2018-06-21T08:06:26.536Z,6.33
2018-06-21T08:08:55.731Z,3.90
2018-06-21T08:11:24.654Z,4.17
2018-06-21T08:13:53.599Z,7.20
2018-06-21T08:16:22.498Z,3.87
2018-06-21T08:18:51.431Z,5.57
2018-06-21T08:21:20.524Z,4.60
2018-06-21T08:23:49.774Z,4.43
2018-06-21T08:26:18.978Z,4.17
2018-06-21T08:28:48.070Z,4.20
2018-06-21T08:31:17.028Z,3.90
2018-06-21T08:33:45.921Z,9.03
2018-06-21T08:36:14.923Z,3.37
2018-06-21T08:38:44.036Z,5.70
2018-06-21T08:41:13.266Z,4.80
2018-06-21T08:43:42.402Z,3.77
2018-06-21T08:46:11.333Z,5.47
2018-06-21T08:48:40.776Z,5.83
2018-06-21T08:51:09.941Z,9.80
2018-06-21T08:53:39.658Z,4.60
2018-06-21T08:56:08.863Z,7.40
2018-06-21T08:58:37.972Z,3.10
2018-06-21T09:01:07.255Z,4.23
2018-06-21T09:03:36.382Z,4.37
2018-06-21T09:06:05.577Z,3.00
2018-06-21T09:08:35.097Z,5.43
2018-06-21T09:11:04.343Z,6.00
2018-06-21T09:13:36.154Z,3.97
2018-06-21T09:16:06.751Z,4.10
2018-06-21T09:18:35.851Z,5.00
2018-06-21T09:21:05.104Z,3.50
2018-06-21T09:23:34.275Z,5.70
2018-06-21T09:26:03.682Z,6.70
2018-06-21T09:28:32.624Z,4.03
2018-06-21T09:31:02.020Z,4.03
2018-06-21T09:33:31.041Z,3.97
2018-06-21T09:35:59.963Z,4.47
2018-06-21T09:38:34.219Z,5.93
2018-06-21T09:41:08.359Z,4.70
2018-06-21T09:43:50.301Z,12.43
2018-06-21T09:46:16.723Z,4.27
2018-06-21T09:48:50.439Z,5.13
2018-06-21T09:51:19.442Z,5.00
2018-06-21T09:53:48.549Z,5.50
2018-06-21T09:56:17.484Z,5.30
2018-06-21T09:58:46.406Z,7.63
2018-06-21T10:01:14.959Z,7.13
2018-06-21T10:03:43.902Z,4.83
2018-06-21T10:06:12.850Z,5.00
2018-06-21T10:08:41.742Z,4.90
2018-06-21T10:11:25.215Z,7.00
2018-06-21T10:13:54.127Z,4.63
2018-06-21T10:16:23.079Z,5.37
2018-06-21T10:18:52.031Z,4.60
2018-06-21T10:21:21.068Z,5.87
2018-06-21T10:23:50.015Z,5.13
2018-06-21T10:26:18.970Z,8.47
2018-06-21T10:28:47.917Z,8.03
2018-06-21T10:31:16.834Z,4.80
2018-06-21T10:33:45.996Z,6.40
2018-06-21T10:36:14.954Z,4.40
2018-06-21T10:38:43.995Z,4.83
2018-06-21T10:41:12.985Z,7.23
2018-06-21T10:43:41.967Z,8.20
2018-06-21T10:46:10.920Z,4.63
2018-06-21T10:48:39.865Z,6.43
2018-06-21T10:51:08.753Z,9.20
2018-06-21T10:53:37.631Z,8.93
2018-06-21T10:56:06.690Z,5.57
2018-06-21T10:58:35.661Z,3.87
2018-06-21T11:01:04.655Z,4.07
2018-06-21T11:03:33.544Z,5.13
2018-06-21T11:06:02.506Z,6.00
2018-06-21T11:08:31.446Z,4.80
2018-06-21T11:11:00.414Z,11.30
2018-06-21T11:13:29.357Z,4.50
2018-06-21T11:15:58.309Z,8.37
2018-06-21T11:18:27.175Z,4.60
2018-06-21T11:20:56.129Z,5.17
2018-06-21T11:23:25.027Z,5.17
2018-06-21T11:25:53.942Z,5.83
2018-06-21T11:28:22.862Z,7.90
2018-06-21T11:30:51.783Z,10.17
2018-06-21T11:33:21.309Z,10.67
2018-06-21T11:35:50.789Z,3.40
2018-06-21T11:38:19.711Z,6.70
2018-06-21T11:40:48.613Z,7.03
2018-06-21T11:43:17.535Z,7.43
2018-06-21T11:45:46.487Z,8.30
2018-06-21T11:48:15.449Z,4.03
2018-06-21T11:50:44.862Z,5.93
2018-06-21T11:53:13.840Z,3.97
2018-06-21T11:55:42.725Z,7.00
2018-06-21T11:58:11.644Z,8.00
2018-06-21T12:00:40.613Z,3.97
2018-06-21T12:03:09.623Z,4.87
2018-06-21T12:05:38.608Z,5.03
2018-06-21T12:08:07.589Z,5.50
2018-06-21T12:10:36.515Z,4.53
2018-06-21T12:13:05.395Z,3.70
2018-06-21T12:15:35.086Z,12.53
2018-06-21T12:18:04.011Z,7.03
2018-06-21T12:20:33.477Z,3.70
2018-06-21T12:23:02.376Z,6.63
2018-06-21T12:25:31.321Z,4.77
2018-06-21T12:28:00.195Z,4.63
2018-06-21T12:30:29.131Z,6.10
2018-06-21T12:32:58.035Z,4.33
2018-06-21T12:35:26.967Z,8.03
2018-06-21T12:37:55.923Z,7.00
2018-06-21T12:40:24.874Z,3.00
2018-06-21T12:42:53.920Z,4.13
2018-06-21T12:45:22.955Z,3.40
2018-06-21T12:47:51.935Z,6.90
2018-06-21T12:50:20.855Z,5.07
2018-06-21T12:52:50.313Z,4.83
2018-06-21T12:55:19.476Z,3.47
2018-06-21T12:57:48.490Z,3.07
2018-06-21T13:00:17.552Z,9.27
2018-06-21T13:02:46.488Z,3.70
2018-06-21T13:05:15.444Z,3.17
2018-06-21T13:07:44.339Z,4.47
2018-06-21T13:10:24.453Z,6.20
2018-06-21T13:13:09.410Z,7.43
2018-06-21T13:15:38.327Z,4.80
2018-06-21T13:18:07.252Z,5.73
2018-06-21T13:20:36.211Z,6.50
2018-06-21T13:23:05.236Z,4.20
2018-06-21T13:25:34.533Z,7.80
2018-06-21T13:28:03.496Z,8.73
2018-06-21T13:30:32.371Z,6.83
2018-06-21T13:33:01.288Z,5.93
2018-06-21T13:35:30.251Z,6.10
2018-06-21T13:37:59.285Z,8.37
2018-06-21T13:40:28.273Z,3.87
2018-06-21T13:42:57.721Z,5.70
2018-06-21T13:45:26.778Z,7.80
2018-06-21T13:47:55.781Z,3.47
2018-06-21T13:50:24.739Z,3.80
2018-06-21T13:52:53.735Z,5.20
2018-06-21T13:55:22.677Z,4.00
2018-06-21T13:57:51.594Z,30.03
2018-06-21T14:00:20.565Z,62.77
2018-06-21T14:02:49.509Z,46.63
2018-06-21T14:05:18.454Z,38.90
2018-06-21T14:07:47.479Z,34.20
2018-06-21T14:10:16.343Z,22.93
2018-06-21T14:12:45.332Z,16.65
2018-06-21T14:15:14.269Z,20.52
2018-06-21T14:17:43.174Z,12.68
2018-06-21T14:20:12.135Z,13.18
2018-06-21T14:22:41.019Z,15.72
2018-06-21T14:25:09.923Z,12.43
2018-06-21T14:27:38.846Z,10.10
2018-06-21T14:30:07.811Z,9.28
2018-06-21T14:32:36.781Z,7.95
2018-06-21T14:35:05.704Z,9.28
2018-06-21T14:37:34.851Z,9.88
2018-06-21T14:40:04.026Z,8.38
2018-06-21T14:42:32.998Z,10.80
2018-06-21T14:45:02.087Z,8.35
2018-06-21T14:47:31.152Z,13.65
2018-06-21T14:50:00.629Z,8.80
2018-06-21T14:52:29.656Z,7.67
2018-06-21T14:54:58.612Z,8.05
2018-06-21T14:57:27.530Z,9.10
2018-06-21T14:59:56.486Z,7.90
2018-06-21T15:02:25.394Z,16.57
2018-06-21T15:04:54.345Z,8.83
2018-06-21T15:07:23.862Z,9.23
2018-06-21T15:09:52.787Z,11.65
2018-06-21T15:12:21.667Z,11.05
2018-06-21T15:14:50.594Z,8.25
2018-06-21T15:17:20.754Z,12.95
2018-06-21T15:19:49.773Z,11.70
2018-06-21T15:22:18.906Z,11.93
2018-06-21T15:24:48.143Z,10.75
2018-06-21T15:27:17.086Z,11.85
2018-06-21T15:29:45.974Z,12.68
2018-06-21T15:32:14.891Z,10.95
2018-06-21T15:34:59.098Z,10.15
2018-06-21T15:37:29.059Z,9.98
2018-06-21T15:39:58.006Z,10.08
2018-06-21T15:42:26.968Z,12.75
2018-06-21T15:44:55.898Z,12.05
2018-06-21T15:47:24.941Z,11.22
2018-06-21T15:49:54.947Z,13.78
2018-06-21T15:52:23.935Z,13.98
2018-06-21T15:54:52.862Z,14.40
2018-06-21T15:57:21.867Z,15.45
2018-06-21T15:59:50.783Z,18.12
2018-06-21T16:02:19.782Z,12.55
2018-06-21T16:04:48.773Z,10.78
2018-06-21T16:07:18.262Z,9.70
2018-06-21T16:09:47.226Z,12.43
2018-06-21T16:12:15.742Z,7.25
2018-06-21T16:14:45.211Z,10.08
2018-06-21T16:17:14.155Z,9.68
2018-06-21T16:19:43.086Z,8.23
2018-06-21T16:22:12.420Z,11.73
2018-06-21T16:24:41.548Z,5.17
2018-06-21T16:27:10.547Z,7.92
2018-06-21T16:29:39.474Z,13.83
2018-06-21T16:32:08.402Z,5.78
2018-06-21T16:34:37.330Z,7.33
2018-06-21T16:37:06.966Z,4.42
2018-06-21T16:39:36.245Z,6.37
2018-06-21T16:42:04.897Z,8.15
2018-06-21T16:44:33.827Z,3.42
2018-06-21T16:47:02.866Z,5.20
2018-06-21T16:49:31.799Z,8.10
2018-06-21T16:52:01.303Z,4.90
2018-06-21T16:54:30.313Z,3.27
2018-06-21T16:56:59.349Z,1.92
2018-06-21T16:59:28.312Z,3.50
2018-06-21T17:01:57.326Z,3.95
2018-06-21T17:04:26.535Z,2.95
2018-06-21T17:06:55.799Z,3.25
2018-06-21T17:09:24.735Z,5.53
2018-06-21T17:11:53.658Z,5.47
2018-06-21T17:14:22.600Z,5.97
2018-06-21T17:16:51.517Z,5.55
2018-06-21T17:19:20.452Z,7.25
2018-06-21T17:21:49.604Z,2.98
2018-06-21T17:24:18.518Z,2.45
2018-06-21T17:26:47.408Z,3.60
2018-06-21T17:29:16.365Z,9.50
2018-06-21T17:31:45.311Z,5.97
2018-06-21T17:34:14.203Z,5.87
2018-06-21T17:36:43.228Z,3.12
2018-06-21T17:39:12.294Z,3.37
2018-06-21T17:41:41.216Z,5.15
2018-06-21T17:44:09.773Z,3.40
2018-06-21T17:46:38.744Z,2.75
2018-06-21T17:49:07.750Z,4.28
2018-06-21T17:51:36.745Z,4.00
2018-06-21T17:54:05.811Z,2.62
2018-06-21T17:56:34.925Z,2.45
2018-06-21T17:59:03.841Z,2.22
2018-06-21T18:01:33.656Z,3.12
2018-06-21T18:04:03.072Z,5.10
2018-06-21T18:06:31.995Z,2.62
2018-06-21T18:09:00.947Z,2.50
2018-06-21T18:11:30.031Z,4.00
2018-06-21T18:13:58.970Z,5.97
2018-06-21T18:16:28.009Z,3.98
2018-06-21T18:18:57.725Z,3.08
2018-06-21T18:21:27.452Z,2.85
2018-06-21T18:23:56.783Z,2.55
2018-06-21T18:26:25.763Z,3.00
2018-06-21T18:28:54.713Z,1.57
2018-06-21T18:31:23.654Z,4.58
2018-06-21T18:33:52.624Z,2.55
2018-06-21T18:36:21.563Z,1.60
2018-06-21T18:38:50.498Z,2.22
2018-06-21T18:41:20.012Z,2.35
2018-06-21T18:43:48.970Z,1.82
2018-06-21T18:46:18.068Z,3.10
2018-06-21T18:48:47.042Z,2.33
2018-06-21T18:51:15.999Z,2.20
2018-06-21T18:53:44.903Z,2.45
2018-06-21T18:56:13.841Z,5.28
2018-06-21T18:58:42.717Z,2.15
2018-06-21T19:01:11.968Z,4.72
2018-06-21T19:03:40.940Z,2.00
2018-06-21T19:06:15.137Z,3.67
2018-06-21T19:08:49.326Z,2.22
2018-06-21T19:11:23.459Z,3.33
2018-06-21T19:13:52.426Z,1.42
2018-06-21T19:16:21.342Z,3.30
2018-06-21T19:18:50.372Z,2.45
2018-06-21T19:21:19.344Z,3.40
2018-06-21T19:24:09.462Z,2.67
2018-06-21T19:26:38.458Z,2.08
2018-06-21T19:29:07.387Z,3.65
2018-06-21T19:31:36.341Z,0.95
2018-06-21T19:34:05.651Z,1.50
2018-06-21T19:36:34.640Z,1.90
2018-06-21T19:39:03.717Z,2.40
2018-06-21T19:41:32.670Z,2.37
2018-06-21T19:44:04.125Z,4.12
2018-06-21T19:46:34.907Z,2.85
2018-06-21T19:49:05.236Z,2.70
2018-06-21T19:51:34.222Z,3.20
2018-06-21T19:54:03.656Z,3.15
2018-06-21T19:56:33.553Z,4.75
2018-06-21T19:59:02.482Z,4.50
2018-06-21T20:01:31.501Z,4.25
2018-06-21T20:04:00.396Z,2.37
2018-06-21T20:06:29.330Z,1.67
2018-06-21T20:08:58.308Z,3.25
2018-06-21T20:11:32.451Z,1.62
2018-06-21T20:14:01.570Z,2.90
2018-06-21T20:16:30.907Z,2.08
2018-06-21T20:19:07.284Z,3.77
2018-06-21T20:21:36.759Z,2.10
2018-06-21T20:24:05.753Z,2.47
2018-06-21T20:26:34.643Z,2.08
2018-06-21T20:29:03.694Z,2.05
2018-06-21T20:31:32.960Z,2.40
2018-06-21T20:34:02.726Z,1.90
2018-06-21T20:36:32.130Z,4.03
2018-06-21T20:39:01.062Z,4.25
2018-06-21T20:41:29.992Z,2.30
2018-06-21T20:43:59.455Z,2.27
2018-06-21T20:46:28.415Z,3.87
2018-06-21T20:48:57.359Z,4.87
2018-06-21T20:51:26.285Z,2.45
2018-06-21T20:53:55.407Z,2.55
2018-06-21T20:56:24.595Z,4.17
2018-06-21T20:58:53.699Z,4.50
2018-06-21T21:01:23.944Z,6.37
2018-06-21T21:03:53.327Z,4.97
2018-06-21T21:06:22.258Z,2.37
2018-06-21T21:08:51.774Z,4.60
2018-06-21T21:11:20.653Z,4.95
2018-06-21T21:13:49.583Z,4.30
2018-06-21T21:16:18.487Z,3.72
2018-06-21T21:18:47.379Z,2.72
2018-06-21T21:21:16.415Z,2.15
2018-06-21T21:23:51.218Z,2.45
2018-06-21T21:26:20.138Z,2.95
2018-06-21T21:28:49.138Z,5.15
2018-06-21T21:31:17.980Z,2.25
2018-06-21T21:33:47.488Z,3.77
2018-06-21T21:36:16.388Z,4.78
2018-06-21T21:38:45.874Z,4.75
2018-06-21T21:41:14.763Z,4.90
2018-06-21T21:43:43.666Z,3.00
2018-06-21T21:46:12.586Z,3.52
2018-06-21T21:48:41.547Z,2.85
2018-06-21T21:51:10.463Z,2.67
2018-06-21T21:53:39.380Z,3.10
2018-06-21T21:56:09.446Z,3.25
2018-06-21T21:58:38.676Z,3.42
2018-06-21T22:01:07.599Z,3.75
2018-06-21T22:03:36.475Z,5.47
2018-06-21T22:06:05.399Z,3.12
2018-06-21T22:08:34.961Z,3.30
2018-06-21T22:11:04.387Z,3.77
2018-06-21T22:13:33.346Z,4.35
2018-06-21T22:16:02.340Z,3.10
2018-06-21T22:18:31.279Z,3.85
2018-06-21T22:21:00.175Z,2.25
2018-06-21T22:23:29.577Z,3.45
2018-06-21T22:25:58.455Z,3.47
2018-06-21T22:28:27.662Z,2.10
2018-06-21T22:30:56.799Z,2.02
2018-06-21T22:33:26.005Z,3.47
2018-06-21T22:35:55.573Z,2.17
2018-06-21T22:38:24.552Z,2.55
2018-06-21T22:40:53.466Z,3.02
2018-06-21T22:43:22.326Z,3.95
2018-06-21T22:45:51.270Z,2.95
2018-06-21T22:48:21.162Z,2.90
2018-06-21T22:50:50.071Z,2.85
2018-06-21T22:53:18.957Z,1.80
2018-06-21T22:55:48.237Z,4.17
2018-06-21T22:58:17.181Z,2.58
2018-06-21T23:00:46.079Z,3.40
2018-06-21T23:03:14.948Z,3.30
2018-06-21T23:05:43.999Z,2.55
2018-06-21T23:08:14.207Z,1.25
2018-06-21T23:10:43.416Z,2.45
2018-06-21T23:13:12.381Z,2.00
2018-06-21T23:15:41.559Z,4.22
2018-06-21T23:18:10.554Z,2.33
2018-06-21T23:20:39.442Z,3.35
2018-06-21T23:23:08.382Z,2.62
2018-06-21T23:25:37.251Z,2.58
2018-06-21T23:28:06.360Z,2.83
2018-06-21T23:30:35.238Z,1.80
2018-06-21T23:33:04.163Z,2.45
2018-06-21T23:35:33.054Z,2.75
2018-06-21T23:38:01.951Z,3.15
2018-06-21T23:40:30.886Z,4.50
2018-06-21T23:42:59.759Z,2.45
2018-06-21T23:45:28.683Z,3.60
2018-06-21T23:47:57.579Z,2.85
2018-06-21T23:50:26.523Z,1.30
2018-06-21T23:52:56.112Z,1.22
2018-06-21T23:55:25.383Z,1.40
2018-06-21T23:57:54.279Z,2.87
